Time;durP1;ratioP1;P1;durP2;ratioP2;P2;SDS_P1;SDS_P2;PMS_P1;PMS_P2;Temp;Humidity;BMP_temperature;BMP_pressure;BME280_temperature;BME280_humidity;BME280_pressure;Samples;Min_cycle;Max_cycle;Signal;HPM_P1;HPM_P2
2023/07/22 00:01:01;;;;;;;2.80;1.25;;;18.90;99.90;;;;;;4998026;28;20083;-71
2023/07/22 00:03:27;;;;;;;1.40;0.80;;;18.80;99.90;;;;;;5032434;28;20041;-70
2023/07/22 00:06:22;;;;;;;3.22;1.00;;;18.60;99.90;;;;;;5030736;28;20037;-70
2023/07/22 00:08:49;;;;;;;1.80;1.00;;;18.80;99.90;;;;;;4990725;28;20045;-71
2023/07/22 00:11:15;;;;;;;2.80;1.20;;;18.80;99.90;;;;;;5023483;28;20056;-71
2023/07/22 00:13:43;;;;;;;2.65;1.40;;;18.80;99.90;;;;;;5032395;28;20482;-71
2023/07/22 00:16:10;;;;;;;2.03;0.88;;;18.80;99.90;;;;;;5030827;28;20144;-71
2023/07/22 00:18:36;;;;;;;2.53;1.10;;;18.70;99.90;;;;;;5020522;28;20021;-71
2023/07/22 00:21:02;;;;;;;2.03;1.10;;;18.80;99.90;;;;;;5030681;28;20043;-71
2023/07/22 00:23:28;;;;;;;1.38;1.00;;;18.70;99.90;;;;;;5021234;28;20067;-71
2023/07/22 00:25:54;;;;;;;1.88;1.27;;;18.90;99.90;;;;;;5030689;28;20033;-71
2023/07/22 00:28:19;;;;;;;2.65;1.20;;;18.90;99.90;;;;;;5031240;28;20049;-70
2023/07/22 00:30:45;;;;;;;2.17;1.30;;;18.90;99.90;;;;;;5026101;28;20401;-71
2023/07/22 00:33:11;;;;;;;2.10;1.33;;;18.90;99.90;;;;;;5032185;28;20385;-72
2023/07/22 00:35:36;;;;;;;4.20;1.40;;;18.90;99.90;;;;;;5030488;28;20029;-71
2023/07/22 00:38:03;;;;;;;2.33;1.00;;;19.00;99.90;;;;;;5032206;28;20132;-72
2023/07/22 00:40:31;;;;;;;1.02;0.60;;;19.00;99.90;;;;;;5030526;28;20025;-73
2023/07/22 00:42:59;;;;;;;4.97;1.40;;;18.80;99.90;;;;;;5031862;28;20427;-70
2023/07/22 00:45:25;;;;;;;2.75;1.15;;;18.70;99.90;;;;;;5030160;28;20040;-70
2023/07/22 00:47:50;;;;;;;2.58;0.95;;;18.80;99.90;;;;;;5032080;28;20033;-72
2023/07/22 00:50:16;;;;;;;1.65;1.20;;;18.80;99.90;;;;;;5030158;28;20096;-72
2023/07/22 00:52:42;;;;;;;2.22;1.10;;;18.70;99.90;;;;;;5031771;28;20394;-72
2023/07/22 00:55:09;;;;;;;2.10;0.93;;;18.60;99.90;;;;;;5030175;28;20037;-72
2023/07/22 00:57:36;;;;;;;1.63;1.02;;;18.50;99.90;;;;;;5022323;28;20021;-72
2023/07/22 01:00:02;;;;;;;2.30;0.98;;;18.50;99.90;;;;;;5030272;28;20042;-71
2023/07/22 01:02:28;;;;;;;1.95;1.30;;;18.70;99.90;;;;;;5021846;28;20634;-71
2023/07/22 01:04:54;;;;;;;2.33;0.93;;;18.70;99.90;;;;;;5010502;28;20041;-71
2023/07/22 01:07:20;;;;;;;2.05;1.00;;;18.60;99.90;;;;;;5004342;28;20033;-72
2023/07/22 01:09:46;;;;;;;2.63;1.38;;;18.70;99.90;;;;;;5013083;28;20040;-71
2023/07/22 01:12:13;;;;;;;1.50;1.00;;;18.70;99.90;;;;;;5030555;28;20045;-72
2023/07/22 01:14:41;;;;;;;2.22;1.15;;;18.70;99.90;;;;;;5029959;28;20492;-71
2023/07/22 01:17:10;;;;;;;1.65;1.00;;;18.80;99.90;;;;;;5030707;28;20470;-71
2023/07/22 01:19:36;;;;;;;1.52;1.00;;;18.60;99.90;;;;;;5031355;28;20068;-69
2023/07/22 01:22:10;;;;;;;1.83;1.20;;;18.60;99.90;;;;;;5024390;28;20548;-70
2023/07/22 01:24:38;;;;;;;1.98;1.05;;;18.80;99.90;;;;;;5013877;28;20037;-68
2023/07/22 01:27:08;;;;;;;1.83;1.15;;;18.80;99.90;;;;;;5027528;28;20116;-70
2023/07/22 01:29:34;;;;;;;2.55;1.10;;;18.90;99.90;;;;;;5014521;28;20116;-68
2023/07/22 01:32:00;;;;;;;2.42;1.10;;;18.90;99.90;;;;;;5029289;28;20055;-70
2023/07/22 01:34:26;;;;;;;2.47;1.23;;;18.90;99.90;;;;;;5013180;28;20025;-69
2023/07/22 01:36:53;;;;;;;1.15;0.90;;;18.90;99.90;;;;;;5029131;28;20025;-69
2023/07/22 01:39:20;;;;;;;2.55;1.23;;;19.00;99.90;;;;;;4993967;28;20021;-69
2023/07/22 01:41:46;;;;;;;2.85;1.95;;;19.00;99.90;;;;;;5026653;28;20036;-69
2023/07/22 01:44:12;;;;;;;2.85;1.10;;;19.00;99.90;;;;;;5030501;28;20025;-69
2023/07/22 01:46:38;;;;;;;1.70;0.90;;;19.30;99.90;;;;;;5017429;28;20034;-69
2023/07/22 01:49:12;;;;;;;3.72;1.10;;;19.40;99.90;;;;;;5030913;28;20489;-69
2023/07/22 01:51:42;;;;;;;2.40;0.98;;;19.30;99.90;;;;;;5029767;28;20068;-69
2023/07/22 01:54:09;;;;;;;2.00;1.23;;;19.20;99.90;;;;;;5014236;28;20037;-69
2023/07/22 01:56:39;;;;;;;5.43;0.88;;;19.20;99.90;;;;;;5012695;28;20036;-69
2023/07/22 01:59:05;;;;;;;1.52;0.80;;;19.30;99.90;;;;;;5027718;28;20034;-69
2023/07/22 02:01:32;;;;;;;2.47;1.23;;;19.10;99.90;;;;;;5019151;28;20018;-68
2023/07/22 02:03:58;;;;;;;2.58;1.10;;;19.10;99.90;;;;;;5029936;28;20087;-70
2023/07/22 02:06:23;;;;;;;5.55;1.13;;;18.80;99.90;;;;;;5013076;28;20370;-70
2023/07/22 02:08:49;;;;;;;1.63;0.98;;;18.80;99.90;;;;;;5030569;28;20052;-69
2023/07/22 02:11:17;;;;;;;2.38;1.35;;;18.80;99.90;;;;;;5029025;28;20108;-69
2023/07/22 02:13:43;;;;;;;2.47;1.30;;;18.40;99.90;;;;;;5017392;28;20025;-68
2023/07/22 02:16:12;;;;;;;4.55;1.35;;;18.10;99.90;;;;;;5028894;28;20396;-67
2023/07/22 02:18:37;;;;;;;5.75;1.83;;;18.00;99.90;;;;;;5030897;28;20040;-68
2023/07/22 02:21:03;;;;;;;1.77;1.20;;;17.90;99.90;;;;;;5028428;28;20026;-68
2023/07/22 02:23:29;;;;;;;3.88;1.52;;;17.90;99.90;;;;;;5030190;28;20425;-68
2023/07/22 02:25:55;;;;;;;2.20;1.23;;;18.00;99.90;;;;;;5028513;28;20049;-68
2023/07/22 02:28:22;;;;;;;3.97;1.52;;;18.00;99.90;;;;;;5030449;28;20112;-69
2023/07/22 02:30:52;;;;;;;2.53;1.45;;;17.90;99.90;;;;;;5028295;28;20061;-69
2023/07/22 02:33:18;;;;;;;3.63;1.70;;;17.80;99.90;;;;;;5021911;28;20470;-71
2023/07/22 02:35:44;;;;;;;3.88;1.77;;;17.60;99.90;;;;;;5032384;28;20033;-70
2023/07/22 02:38:11;;;;;;;2.83;1.55;;;17.60;99.90;;;;;;5000278;28;20029;-71
2023/07/22 02:40:37;;;;;;;3.13;1.70;;;17.40;99.90;;;;;;5016118;28;20382;-70
2023/07/22 02:43:03;;;;;;;2.25;1.40;;;17.40;99.90;;;;;;5034078;28;20053;-70
2023/07/22 02:45:30;;;;;;;3.28;1.65;;;17.30;99.90;;;;;;5015642;28;20037;-70
2023/07/22 02:47:56;;;;;;;2.55;1.73;;;17.30;99.90;;;;;;5024603;28;20041;-70
2023/07/22 02:50:21;;;;;;;4.28;2.10;;;17.30;99.90;;;;;;5032197;28;20033;-70
2023/07/22 02:52:47;;;;;;;2.95;2.00;;;17.10;99.90;;;;;;5024194;28;20033;-69
2023/07/22 02:55:20;;;;;;;2.85;1.20;;;17.00;99.90;;;;;;5032232;28;20033;-69
2023/07/22 02:57:47;;;;;;;6.55;2.90;;;17.00;99.90;;;;;;5033574;28;20358;-70
2023/07/22 03:00:24;;;;;;;3.90;1.88;;;17.00;99.90;;;;;;5032850;28;20038;-70
2023/07/22 03:03:00;;;;;;;2.78;1.60;;;17.10;99.90;;;;;;5018233;28;20360;-69
2023/07/22 03:05:30;;;;;;;5.10;1.98;;;17.10;99.90;;;;;;5024538;28;20038;-69
2023/07/22 03:07:58;;;;;;;2.67;1.67;;;17.10;99.90;;;;;;5033521;28;20057;-69
2023/07/22 03:10:28;;;;;;;3.60;1.98;;;17.10;99.90;;;;;;5015326;28;20107;-69
2023/07/22 03:12:56;;;;;;;3.92;2.17;;;17.10;99.90;;;;;;5020746;28;20033;-69
2023/07/22 03:15:25;;;;;;;4.35;2.63;;;17.00;99.90;;;;;;5025129;28;20061;-69
2023/07/22 03:17:52;;;;;;;2.83;1.90;;;17.00;99.90;;;;;;5033500;28;20119;-69
2023/07/22 03:20:19;;;;;;;6.32;2.60;;;17.00;99.90;;;;;;5015452;28;20481;-69
2023/07/22 03:22:46;;;;;;;5.25;2.92;;;16.90;99.90;;;;;;5032837;28;20079;-69
2023/07/22 03:25:14;;;;;;;4.90;2.53;;;16.90;99.90;;;;;;5011127;28;20029;-69
2023/07/22 03:27:40;;;;;;;4.78;2.33;;;16.80;99.90;;;;;;5033093;28;20036;-69
2023/07/22 03:30:10;;;;;;;7.22;2.35;;;16.70;99.90;;;;;;5031489;28;20033;-69
2023/07/22 03:32:36;;;;;;;7.55;3.05;;;16.60;99.90;;;;;;5024236;28;20044;-69
2023/07/22 03:35:03;;;;;;;4.63;2.40;;;16.60;99.90;;;;;;5014058;28;20030;-69
2023/07/22 03:37:29;;;;;;;4.45;2.58;;;16.50;99.90;;;;;;5016254;28;20017;-69
2023/07/22 03:39:55;;;;;;;5.53;2.97;;;16.50;99.90;;;;;;5013698;28;20498;-69
2023/07/22 03:42:21;;;;;;;5.63;2.22;;;16.50;99.90;;;;;;5032825;28;20065;-69
2023/07/22 03:44:46;;;;;;;9.25;2.92;;;16.50;99.90;;;;;;5013806;28;20057;-69
2023/07/22 03:47:12;;;;;;;6.43;3.35;;;16.80;99.90;;;;;;5037957;28;20045;-69
2023/07/22 03:49:38;;;;;;;5.78;3.30;;;16.70;99.90;;;;;;5015136;28;20516;-69
2023/07/22 03:52:04;;;;;;;5.57;3.20;;;16.70;99.90;;;;;;5031593;28;20033;-68
2023/07/22 03:54:30;;;;;;;4.75;2.35;;;16.70;99.90;;;;;;5032523;28;20029;-69
2023/07/22 03:56:56;;;;;;;4.10;2.72;;;16.80;99.90;;;;;;5030821;28;20040;-69
2023/07/22 03:59:22;;;;;;;5.07;3.10;;;16.80;99.90;;;;;;5032874;28;20033;-68
2023/07/22 04:01:47;;;;;;;4.60;2.88;;;16.80;99.90;;;;;;5018580;28;20060;-69
2023/07/22 04:04:13;;;;;;;4.53;2.50;;;16.90;99.90;;;;;;5032379;28;20036;-69
2023/07/22 04:06:39;;;;;;;6.53;3.13;;;16.90;99.90;;;;;;5044257;23;20050;-72
2023/07/22 04:09:05;;;;;;;4.55;2.33;;;16.90;99.90;;;;;;5046215;28;20025;-73
2023/07/22 04:11:30;;;;;;;5.07;2.58;;;16.90;99.90;;;;;;5042974;28;20071;-72
2023/07/22 04:13:56;;;;;;;5.32;2.97;;;16.70;99.90;;;;;;5043839;28;20025;-72
2023/07/22 04:16:22;;;;;;;5.28;2.40;;;16.70;99.90;;;;;;5024748;28;20037;-72
2023/07/22 04:18:48;;;;;;;6.10;2.53;;;16.70;99.90;;;;;;5024288;28;20499;-71
2023/07/22 04:21:13;;;;;;;3.15;1.90;;;16.80;99.90;;;;;;5020465;28;20056;-72
2023/07/22 04:23:39;;;;;;;4.30;2.42;;;16.90;99.90;;;;;;5012931;28;20104;-72
2023/07/22 04:26:07;;;;;;;3.88;1.80;;;16.90;99.90;;;;;;4972455;28;20080;-72
2023/07/22 04:28:34;;;;;;;2.60;1.63;;;16.70;99.90;;;;;;5023360;28;20033;-72
2023/07/22 04:31:00;;;;;;;2.80;1.60;;;16.70;99.90;;;;;;5006280;28;20037;-51
2023/07/22 04:33:27;;;;;;;4.45;2.22;;;16.50;99.90;;;;;;4999090;28;20021;-50
2023/07/22 04:35:58;;;;;;;7.90;2.35;;;16.60;99.90;;;;;;4993401;28;20034;-52
2023/07/22 04:38:24;;;;;;;;;;;16.60;99.90;;;;;;4995216;28;20029;-54
2023/07/22 04:40:50;;;;;;;3.30;2.20;;;16.70;99.90;;;;;;5009534;28;19940;-54
2023/07/22 04:43:16;;;;;;;2.83;1.60;;;16.70;99.90;;;;;;5019796;28;20096;-51
2023/07/22 04:45:47;;;;;;;3.55;2.15;;;16.80;99.90;;;;;;5023942;28;20041;-53
2023/07/22 04:48:22;;;;;;;4.50;2.28;;;16.80;99.90;;;;;;5022964;28;20070;-50
2023/07/22 04:50:48;;;;;;;2.97;1.88;;;17.00;99.90;;;;;;5023394;28;20046;-54
2023/07/22 04:53:14;;;;;;;2.60;1.50;;;16.90;99.90;;;;;;5005158;28;20114;-71
2023/07/22 04:55:41;;;;;;;3.70;2.00;;;16.90;99.90;;;;;;5007093;28;20896;-71
2023/07/22 04:58:07;;;;;;;2.53;1.70;;;16.90;99.90;;;;;;5003897;28;20105;-71
2023/07/22 05:00:33;;;;;;;2.78;1.55;;;17.00;99.90;;;;;;5008022;28;20113;-71
2023/07/22 05:02:59;;;;;;;4.25;1.45;;;17.20;99.90;;;;;;5020276;28;20022;-72
2023/07/22 05:05:26;;;;;;;6.00;2.22;;;17.20;99.90;;;;;;5025950;28;20058;-72
2023/07/22 05:07:52;;;;;;;7.20;2.30;;;17.20;99.90;;;;;;5002450;28;20113;-72
2023/07/22 05:10:19;;;;;;;4.22;2.28;;;17.00;99.90;;;;;;4976715;28;20121;-71
2023/07/22 05:12:45;;;;;;;5.00;2.47;;;17.10;99.90;;;;;;5001913;28;20029;-72
2023/07/22 05:15:13;;;;;;;2.97;1.70;;;17.00;99.90;;;;;;5020533;28;20033;-71
2023/07/22 05:17:39;;;;;;;3.15;1.63;;;17.00;99.90;;;;;;5002106;28;20030;-72
2023/07/22 05:20:06;;;;;;;4.43;1.90;;;17.20;99.90;;;;;;5009204;28;20052;-70
2023/07/22 05:22:32;;;;;;;3.72;1.80;;;17.40;99.90;;;;;;5018957;28;20022;-70
2023/07/22 05:24:59;;;;;;;4.80;1.65;;;17.30;99.90;;;;;;5027263;28;20029;-70
2023/07/22 05:27:25;;;;;;;4.05;2.10;;;17.30;99.90;;;;;;5018033;28;20041;-71
2023/07/22 05:29:51;;;;;;;6.70;2.65;;;17.10;99.90;;;;;;5027034;28;20342;-71
2023/07/22 05:32:16;;;;;;;6.22;1.90;;;17.10;99.90;;;;;;5018702;28;20026;-71
2023/07/22 05:34:42;;;;;;;3.63;2.25;;;17.00;99.90;;;;;;5002556;28;20118;-71
2023/07/22 05:37:08;;;;;;;4.35;2.28;;;17.10;99.90;;;;;;5008987;28;20022;-71
2023/07/22 05:39:33;;;;;;;6.40;2.78;;;17.10;99.90;;;;;;5016279;28;20022;-71
2023/07/22 05:41:59;;;;;;;3.65;1.80;;;17.20;99.90;;;;;;5020768;28;20041;-72
2023/07/22 05:44:25;;;;;;;2.92;1.73;;;17.20;99.90;;;;;;5023252;28;20057;-71
2023/07/22 05:46:50;;;;;;;7.45;1.85;;;17.20;99.90;;;;;;5021962;28;20061;-69
2023/07/22 05:49:16;;;;;;;3.08;1.67;;;17.30;99.90;;;;;;5022552;28;20039;-69
2023/07/22 05:51:42;;;;;;;2.78;1.60;;;17.40;99.90;;;;;;5004363;28;20123;-71
2023/07/22 05:54:08;;;;;;;3.90;1.45;;;17.50;99.90;;;;;;5004586;28;20439;-72
2023/07/22 05:56:34;;;;;;;5.65;1.55;;;17.50;99.90;;;;;;5025819;28;20036;-71
2023/07/22 05:58:59;;;;;;;3.20;1.55;;;17.60;99.90;;;;;;5004431;28;20455;-70
2023/07/22 06:01:25;;;;;;;2.83;1.90;;;17.50;99.90;;;;;;5003792;28;20052;-69
2023/07/22 06:03:52;;;;;;;3.58;1.63;;;17.70;99.90;;;;;;5018651;28;20108;-69
2023/07/22 06:06:18;;;;;;;2.78;1.17;;;17.70;99.90;;;;;;4995946;28;20106;-69
2023/07/22 06:08:44;;;;;;;2.17;1.40;;;17.60;99.90;;;;;;5021503;28;20036;-68
2023/07/22 06:11:09;;;;;;;6.60;1.88;;;17.60;99.90;;;;;;5005901;28;20398;-70
2023/07/22 06:13:35;;;;;;;2.60;1.60;;;17.70;99.90;;;;;;5004107;28;20144;-71
2023/07/22 06:16:01;;;;;;;4.13;2.00;;;17.80;99.90;;;;;;5008542;28;20030;-70
2023/07/22 06:18:27;;;;;;;2.47;1.30;;;17.70;99.90;;;;;;5021949;28;20123;-71
2023/07/22 06:20:52;;;;;;;2.25;1.30;;;17.80;99.90;;;;;;5025949;28;20612;-73
2023/07/22 06:23:18;;;;;;;4.55;1.92;;;17.80;99.90;;;;;;5004046;28;20034;-71
2023/07/22 06:25:44;;;;;;;4.07;1.40;;;17.70;99.90;;;;;;5026648;28;20053;-72
2023/07/22 06:28:10;;;;;;;3.10;1.60;;;17.70;99.90;;;;;;5020421;28;20052;-72
2023/07/22 06:30:35;;;;;;;2.38;1.55;;;17.70;99.90;;;;;;5006429;28;20042;-71
2023/07/22 06:33:01;;;;;;;3.50;1.48;;;17.70;99.90;;;;;;5009210;28;20126;-70
2023/07/22 06:35:27;;;;;;;2.33;1.55;;;17.70;99.90;;;;;;5009490;28;20030;-70
2023/07/22 06:37:53;;;;;;;3.60;1.50;;;17.70;99.90;;;;;;5016643;28;20026;-69
2023/07/22 06:40:19;;;;;;;6.65;1.80;;;17.70;99.90;;;;;;5012322;28;20167;-70
2023/07/22 06:42:44;;;;;;;2.53;1.52;;;17.60;99.90;;;;;;5017787;28;20411;-71
2023/07/22 06:45:10;;;;;;;1.85;1.02;;;17.80;99.90;;;;;;5021242;28;20029;-70
2023/07/22 06:47:36;;;;;;;3.10;1.55;;;17.80;99.90;;;;;;5017280;28;20041;-72
2023/07/22 06:50:04;;;;;;;2.13;1.15;;;17.90;99.90;;;;;;5027937;28;20022;-70
2023/07/22 06:52:31;;;;;;;4.72;1.67;;;18.00;99.90;;;;;;5003061;28;20026;-71
2023/07/22 06:54:57;;;;;;;3.60;1.83;;;17.90;99.90;;;;;;5026208;28;20508;-71
2023/07/22 06:57:22;;;;;;;4.50;1.70;;;17.90;99.90;;;;;;5017622;28;20069;-70
2023/07/22 06:59:50;;;;;;;5.45;1.85;;;17.90;99.90;;;;;;5008424;28;20400;-71
2023/07/22 07:02:16;;;;;;;4.53;1.48;;;18.00;99.90;;;;;;5012449;28;20029;-70
2023/07/22 07:04:42;;;;;;;4.05;1.77;;;18.00;99.90;;;;;;5015695;28;20044;-74
2023/07/22 07:07:08;;;;;;;4.13;1.73;;;18.00;99.90;;;;;;5009767;28;20034;-74
2023/07/22 07:09:35;;;;;;;5.95;2.00;;;17.80;99.90;;;;;;5006386;28;20033;-73
2023/07/22 07:12:01;;;;;;;4.60;1.70;;;17.80;99.90;;;;;;5006750;28;20034;-73
2023/07/22 07:14:27;;;;;;;3.42;1.77;;;17.90;99.90;;;;;;5001792;28;20053;-72
2023/07/22 07:16:52;;;;;;;6.35;1.65;;;18.10;99.90;;;;;;5007758;28;20022;-72
2023/07/22 07:19:18;;;;;;;4.70;1.92;;;18.20;99.90;;;;;;4992732;28;20096;-72
2023/07/22 07:21:44;;;;;;;3.65;2.20;;;18.30;99.90;;;;;;4994672;28;20050;-73
2023/07/22 07:24:10;;;;;;;3.85;1.90;;;18.10;99.90;;;;;;5012905;28;20073;-73
2023/07/22 07:26:35;;;;;;;7.45;1.80;;;18.20;99.90;;;;;;5018278;28;20043;-73
2023/07/22 07:29:01;;;;;;;7.97;3.42;;;18.30;99.90;;;;;;5025119;28;20542;-73
2023/07/22 07:31:27;;;;;;;4.72;2.40;;;18.40;99.90;;;;;;5029106;28;20133;-72
2023/07/22 07:33:53;;;;;;;5.65;2.35;;;18.40;99.90;;;;;;4999041;28;20026;-72
2023/07/22 07:36:18;;;;;;;4.18;2.17;;;18.20;99.90;;;;;;5016056;28;20382;-72
2023/07/22 07:38:44;;;;;;;3.35;2.08;;;18.30;99.90;;;;;;5025027;28;20029;-73
2023/07/22 07:41:13;;;;;;;5.47;1.42;;;18.30;99.90;;;;;;5028361;28;20075;-72
2023/07/22 07:43:42;;;;;;;5.97;1.63;;;18.40;99.90;;;;;;5024383;28;20026;-72
2023/07/22 07:46:25;;;;;;;4.10;2.00;;;18.40;99.90;;;;;;5011261;28;20033;-72
2023/07/22 07:48:58;;;;;;;3.05;1.48;;;18.30;99.90;;;;;;5007848;28;20052;-72
2023/07/22 07:51:26;;;;;;;2.65;1.23;;;18.30;99.90;;;;;;5028253;28;20477;-72
2023/07/22 07:53:54;;;;;;;3.47;1.88;;;18.40;99.90;;;;;;5024404;28;20033;-73
2023/07/22 07:56:20;;;;;;;2.85;1.10;;;18.50;99.90;;;;;;5011420;28;20036;-73
2023/07/22 07:58:49;;;;;;;3.17;1.50;;;18.60;99.90;;;;;;5023334;28;20029;-72
2023/07/22 08:01:15;;;;;;;3.47;1.67;;;18.60;99.90;;;;;;5011141;28;20080;-72
2023/07/22 08:03:42;;;;;;;5.72;1.60;;;18.80;99.90;;;;;;5000275;28;20482;-72
2023/07/22 08:06:09;;;;;;;3.25;1.20;;;18.80;99.90;;;;;;5013705;28;20057;-72
2023/07/22 08:08:36;;;;;;;2.35;1.42;;;18.80;99.90;;;;;;5006783;28;20125;-72
2023/07/22 08:11:10;;;;;;;3.22;1.45;;;19.00;99.90;;;;;;5025049;28;20112;-72
2023/07/22 08:13:37;;;;;;;3.03;1.60;;;19.20;99.90;;;;;;5006789;28;20076;-72
2023/07/22 08:16:06;;;;;;;2.70;1.15;;;19.30;99.90;;;;;;5027830;28;20026;-72
2023/07/22 08:18:33;;;;;;;3.45;1.27;;;19.50;99.90;;;;;;5006975;28;20025;-73
2023/07/22 08:21:02;;;;;;;3.65;1.15;;;19.70;99.90;;;;;;5027737;28;20448;-72
2023/07/22 08:23:28;;;;;;;4.95;1.98;;;19.90;99.90;;;;;;5023832;28;20117;-73
2023/07/22 08:25:54;;;;;;;4.03;1.15;;;19.80;99.90;;;;;;5027615;28;20049;-74
2023/07/22 08:28:20;;;;;;;5.53;1.58;;;19.90;99.90;;;;;;5024086;28;20489;-73
2023/07/22 08:30:48;;;;;;;1.35;0.85;;;20.00;99.90;;;;;;5010792;28;20045;-72
2023/07/22 08:33:14;;;;;;;3.67;1.05;;;20.10;99.90;;;;;;5001792;28;20030;-73
2023/07/22 08:35:41;;;;;;;3.55;1.45;;;20.10;99.90;;;;;;5011980;28;20065;-75
2023/07/22 08:38:08;;;;;;;3.53;1.38;;;20.40;99.90;;;;;;5023178;28;20112;-73
2023/07/22 08:40:39;;;;;;;2.10;1.00;;;20.20;99.90;;;;;;5011335;28;20434;-72
2023/07/22 08:43:08;;;;;;;2.55;1.30;;;20.40;99.90;;;;;;5021340;28;20030;-73
2023/07/22 08:45:36;;;;;;;1.27;0.80;;;20.70;99.90;;;;;;5011364;28;20030;-73
2023/07/22 08:48:15;;;;;;;2.13;1.13;;;20.90;99.90;;;;;;5021513;28;20133;-74
2023/07/22 08:51:02;;;;;;;4.65;1.25;;;20.80;99.90;;;;;;5003508;28;20096;-72
2023/07/22 08:53:30;;;;;;;3.60;1.42;;;20.70;99.90;;;;;;5010305;28;20125;-75
2023/07/22 08:55:56;;;;;;;2.88;1.42;;;20.70;99.90;;;;;;4966242;28;20129;-76
2023/07/22 08:58:23;;;;;;;1.63;1.00;;;20.60;99.90;;;;;;5013092;28;20557;-75
2023/07/22 09:00:50;;;;;;;3.20;1.05;;;20.60;99.90;;;;;;4995880;28;20127;-77
2023/07/22 09:03:17;;;;;;;3.05;1.50;;;20.70;99.90;;;;;;5002132;28;20076;-71
2023/07/22 09:05:43;;;;;;;2.35;1.20;;;20.80;99.90;;;;;;4992211;28;20425;-70
2023/07/22 09:08:09;;;;;;;2.45;1.40;;;20.70;99.90;;;;;;5003736;28;20124;-75
2023/07/22 09:10:36;;;;;;;2.85;1.10;;;20.90;99.90;;;;;;5008277;28;20125;-70
2023/07/22 09:13:03;;;;;;;2.88;1.42;;;21.00;99.90;;;;;;4989321;28;20117;-71
2023/07/22 09:15:29;;;;;;;1.80;1.05;;;21.10;99.90;;;;;;5019117;28;20029;-70
2023/07/22 09:17:55;;;;;;;1.92;1.08;;;21.30;99.90;;;;;;5001512;28;20030;-72
2023/07/22 09:20:22;;;;;;;2.55;1.40;;;21.00;99.90;;;;;;5011461;28;20056;-72
2023/07/22 09:22:50;;;;;;;1.73;1.27;;;21.20;99.90;;;;;;4998368;28;20116;-71
2023/07/22 09:25:18;;;;;;;3.65;1.30;;;21.40;99.90;;;;;;5013221;28;20516;-72
2023/07/22 09:27:46;;;;;;;2.00;1.20;;;21.40;99.90;;;;;;5001854;28;20034;-72
2023/07/22 09:30:30;;;;;;;2.38;1.23;;;21.60;99.90;;;;;;5013316;28;20034;-71
2023/07/22 09:33:05;;;;;;;3.38;1.33;;;21.70;99.90;;;;;;5010168;28;20030;-71
2023/07/22 09:35:50;;;;;;;2.08;0.95;;;21.90;99.90;;;;;;5010269;28;20029;-72
2023/07/22 09:38:24;;;;;;;6.25;1.73;;;22.10;99.90;;;;;;5021047;28;20029;-71
2023/07/22 09:40:50;;;;;;;2.42;1.15;;;22.30;99.90;;;;;;5026710;28;20038;-72
2023/07/22 09:43:16;;;;;;;4.68;1.00;;;22.20;99.90;;;;;;4992735;28;20509;-72
2023/07/22 09:45:46;;;;;;;2.80;1.10;;;22.50;98.90;;;;;;5020849;28;20539;-68
2023/07/22 09:48:11;;;;;;;2.88;1.58;;;22.60;97.80;;;;;;4996502;28;20038;-71
2023/07/22 09:50:38;;;;;;;2.30;1.38;;;22.70;98.00;;;;;;5010220;28;20137;-70
2023/07/22 09:53:04;;;;;;;2.60;1.27;;;23.10;96.90;;;;;;5020010;28;20076;-71
2023/07/22 09:55:32;;;;;;;2.42;1.02;;;23.30;96.30;;;;;;5011744;28;20102;-70
2023/07/22 09:58:10;;;;;;;1.63;0.90;;;23.50;95.00;;;;;;5018286;28;20029;-70
2023/07/22 10:00:37;;;;;;;2.97;0.80;;;23.40;94.20;;;;;;5011871;28;20025;-69
2023/07/22 10:03:09;;;;;;;6.07;0.88;;;23.40;93.50;;;;;;5018610;28;20375;-70
2023/07/22 10:05:36;;;;;;;1.80;0.85;;;23.60;92.90;;;;;;5029590;23;20024;-68
2023/07/22 10:08:02;;;;;;;2.42;0.93;;;23.60;92.50;;;;;;5053432;28;20049;-68
2023/07/22 10:10:35;;;;;;;2.55;1.10;;;23.20;93.30;;;;;;5064759;28;20028;-68
2023/07/22 10:13:02;;;;;;;2.38;0.90;;;23.30;93.60;;;;;;5056874;28;20033;-69
2023/07/22 10:15:31;;;;;;;2.60;0.95;;;23.50;92.20;;;;;;5063576;28;20072;-68
2023/07/22 10:17:57;;;;;;;2.42;1.08;;;23.50;92.10;;;;;;5039046;28;20120;-67
2023/07/22 10:20:24;;;;;;;2.58;1.10;;;23.60;91.70;;;;;;5029656;28;20033;-66
2023/07/22 10:22:50;;;;;;;2.28;1.20;;;23.40;92.50;;;;;;5020303;28;20041;-67
2023/07/22 10:25:19;;;;;;;5.32;1.90;;;23.10;92.70;;;;;;5047969;28;20025;-67
2023/07/22 10:27:48;;;;;;;3.08;1.00;;;23.10;92.80;;;;;;5016290;28;20125;-68
2023/07/22 10:30:16;;;;;;;2.70;1.17;;;22.90;93.40;;;;;;5048526;28;20147;-67
2023/07/22 10:32:49;;;;;;;5.93;2.20;;;22.80;93.30;;;;;;5032180;28;20554;-68
2023/07/22 10:35:40;;;;;;;4.55;1.98;;;22.90;93.10;;;;;;5022514;28;20412;-70
2023/07/22 10:38:14;;;;;;;2.58;1.58;;;23.00;93.50;;;;;;5016010;28;20120;-68
2023/07/22 10:40:52;;;;;;;2.25;1.20;;;23.10;93.10;;;;;;5027963;28;20041;-68
2023/07/22 10:43:29;;;;;;;2.20;1.10;;;23.10;93.80;;;;;;5009810;28;20096;-68
2023/07/22 10:45:58;;;;;;;1.75;0.80;;;23.40;92.80;;;;;;5013336;28;20073;-69
2023/07/22 10:48:34;;;;;;;4.22;0.90;;;23.40;92.60;;;;;;5008586;28;20077;-67
2023/07/22 10:51:10;;;;;;;3.53;1.10;;;23.50;92.30;;;;;;5010586;28;20686;-61
2023/07/22 10:53:50;;;;;;;3.50;1.23;;;23.10;92.60;;;;;;5014949;28;21268;-63
2023/07/22 10:56:23;;;;;;;2.22;1.13;;;23.40;92.70;;;;;;5030437;28;20082;-57
2023/07/22 10:58:52;;;;;;;2.97;1.25;;;23.40;92.70;;;;;;5010738;28;20025;-55
2023/07/22 11:01:30;;;;;;;1.77;1.02;;;23.20;92.50;;;;;;5035178;28;20064;-57
2023/07/22 11:04:17;;;;;;;4.32;1.00;;;23.20;92.40;;;;;;5029815;28;20045;-56
2023/07/22 11:06:50;;;;;;;3.55;1.50;;;23.10;92.70;;;;;;5010881;28;20044;-57
2023/07/22 11:09:34;;;;;;;3.67;1.17;;;23.20;93.30;;;;;;5027143;28;20128;-57
2023/07/22 11:12:05;;;;;;;5.47;1.42;;;23.60;93.30;;;;;;5025049;28;20073;-56
2023/07/22 11:14:44;;;;;;;2.70;1.20;;;24.30;92.90;;;;;;5044443;28;20021;-57
2023/07/22 11:17:11;;;;;;;2.88;1.05;;;24.80;90.30;;;;;;5021562;28;20404;-58
2023/07/22 11:19:37;;;;;;;1.38;0.80;;;24.80;90.00;;;;;;5038375;28;20024;-57
2023/07/22 11:22:04;;;;;;;1.92;1.00;;;24.70;88.90;;;;;;5014512;28;20075;-58
2023/07/22 11:24:35;;;;;;;3.38;0.95;;;24.60;89.30;;;;;;5031505;28;20152;-57
2023/07/22 11:27:05;;;;;;;2.00;0.73;;;24.60;88.90;;;;;;5031426;28;20494;-57
2023/07/22 11:29:31;;;;;;;2.25;1.05;;;24.60;87.90;;;;;;5028064;28;20047;-57
2023/07/22 11:31:57;;;;;;;3.13;1.48;;;24.80;88.50;;;;;;5041894;28;20129;-54
2023/07/22 11:34:24;;;;;;;3.03;1.05;;;25.00;86.80;;;;;;5052202;28;20112;-55
2023/07/22 11:36:52;;;;;;;5.03;1.50;;;25.60;86.70;;;;;;5041782;28;20511;-67
2023/07/22 11:39:21;;;;;;;1.90;1.15;;;25.80;84.00;;;;;;4995304;28;20567;-65
2023/07/22 11:41:49;;;;;;;2.25;1.10;;;25.50;85.20;;;;;;5038313;28;20469;-66
2023/07/22 11:44:18;;;;;;;1.08;0.80;;;25.40;84.70;;;;;;5050893;28;20144;-66
2023/07/22 11:47:03;;;;;;;2.15;1.10;;;25.10;84.90;;;;;;5039233;28;20061;-65
2023/07/22 11:49:30;;;;;;;3.15;1.05;;;25.10;83.50;;;;;;4995679;28;20037;-65
2023/07/22 11:52:02;;;;;;;5.18;1.45;;;25.00;82.80;;;;;;5037877;28;20041;-65
2023/07/22 11:54:29;;;;;;;5.05;1.25;;;24.80;83.40;;;;;;5034604;28;20029;-66
2023/07/22 11:56:56;;;;;;;2.15;1.00;;;25.10;82.10;;;;;;5041020;28;20029;-67
2023/07/22 11:59:56;;;;;;;2.25;1.13;;;25.20;82.60;;;;;;5018990;28;20080;-59
2023/07/22 12:02:25;;;;;;;3.58;1.40;;;25.30;78.90;;;;;;4999159;28;20049;-59
2023/07/22 12:05:02;;;;;;;3.05;1.40;;;25.10;78.60;;;;;;5045849;28;20029;-59
2023/07/22 12:07:29;;;;;;;2.15;0.95;;;25.20;78.00;;;;;;5037667;28;20030;-58
2023/07/22 12:10:02;;;;;;;1.17;0.82;;;25.40;78.80;;;;;;5030307;28;20787;-59
2023/07/22 12:12:49;;;;;;;0.90;0.63;;;25.70;77.10;;;;;;5010654;28;20034;-59
2023/07/22 12:15:20;;;;;;;1.80;0.85;;;25.70;75.60;;;;;;5022113;28;20053;-58
2023/07/22 12:18:00;;;;;;;2.30;1.08;;;25.80;73.80;;;;;;5031682;28;20029;-58
2023/07/22 12:20:32;;;;;;;2.03;0.88;;;25.50;72.90;;;;;;5017215;28;20040;-58
2023/07/22 12:22:59;;;;;;;2.20;0.90;;;25.30;74.10;;;;;;5029032;28;20080;-58
2023/07/22 12:25:25;;;;;;;1.77;0.90;;;25.40;74.30;;;;;;5023300;28;20061;-60
2023/07/22 12:27:51;;;;;;;2.72;1.20;;;25.00;73.50;;;;;;5018232;28;20120;-73
2023/07/22 12:30:18;;;;;;;3.90;1.10;;;24.90;74.00;;;;;;5016542;28;20044;-70
2023/07/22 12:32:44;;;;;;;2.08;1.08;;;24.90;72.60;;;;;;5007655;28;20075;-71
2023/07/22 12:35:10;;;;;;;2.90;1.05;;;24.90;72.00;;;;;;5047585;28;20450;-70
2023/07/22 12:37:36;;;;;;;2.67;1.27;;;25.00;72.10;;;;;;5037734;28;20028;-70
2023/07/22 12:40:07;;;;;;;4.07;1.13;;;25.10;74.10;;;;;;5031167;28;20068;-68
2023/07/22 12:42:35;;;;;;;2.25;1.05;;;25.80;71.80;;;;;;5024741;28;20787;-67
2023/07/22 12:45:02;;;;;;;7.25;1.65;;;26.20;71.10;;;;;;5030341;28;20043;-68
2023/07/22 12:47:27;;;;;;;2.05;0.82;;;26.00;71.10;;;;;;5040060;28;20029;-69
2023/07/22 12:49:53;;;;;;;3.50;0.88;;;26.60;69.40;;;;;;5029946;28;20029;-67
2023/07/22 12:52:19;;;;;;;5.05;1.23;;;27.10;70.60;;;;;;5042317;28;20024;-68